DTTZ/TOE METAR and TAF weather

Enter ICAO airport designator
Station Type Date Time Source
DTTZ METAR 2019/05/19 21:00 UTC NOAA

DTTZ 192100Z 30015KT 9999 SCT033 24/03 Q1010 NOSIG


Station Type Date Time Source
DTTZ Decoded METAR 2019/05/19 21:00 UTC NOAA

Tozeur, Tunisia (DTTZ) 33-55N 008-06E 93M
May 19, 2019 - 05:00 PM EDT / 2019.05.19 2100 UTC
Wind: from the WNW (300 degrees) at 17 MPH (15 KT):0
Visibility: greater than 7 mile(s):0
Sky conditions: partly cloudy
Temperature: 75 F (24 C)
Dew Point: 37 F (3 C)
Relative Humidity: 25%
Pressure (altimeter): 29.83 in. Hg (1010 hPa)
ob: DTTZ 192100Z 30015KT 9999 SCT033 24/03 Q1010 NOSIG
cycle: 21

Station Type Date Time Source
DTTZ TAF 2019/05/19 18:18 UTC NOAA

TAF DTTZ 191700Z 1918/2018 28015KT 9999 SCT033 PROB30
TEMPO 1920/2006 4000 -SHRA FEW030TCU
BECMG 2012/2014 09005KT

Example: see airport list